sensor_id;sensor_type;location;lat;lon;timestamp;pressure;altitude;pressure_sealevel;temperature;humidity
13767;BME280;47980;48.794;9.176;2022-11-15T00:01:50;98047.69;;;11.07;85.30
13767;BME280;47980;48.794;9.176;2022-11-15T00:04:22;98053.09;;;11.11;83.82
13767;BME280;47980;48.794;9.176;2022-11-15T00:06:53;98051.25;;;11.11;84.46
13767;BME280;47980;48.794;9.176;2022-11-15T00:09:26;98051.56;;;11.09;83.40
13767;BME280;47980;48.794;9.176;2022-11-15T00:11:58;98056.78;;;11.18;82.00
13767;BME280;47980;48.794;9.176;2022-11-15T00:14:30;98043.38;;;11.15;83.60
13767;BME280;47980;48.794;9.176;2022-11-15T00:17:01;98045.31;;;11.26;80.68
13767;BME280;47980;48.794;9.176;2022-11-15T00:19:33;98045.50;;;11.21;81.61
13767;BME280;47980;48.794;9.176;2022-11-15T00:22:05;98044.94;;;11.16;80.92
13767;BME280;47980;48.794;9.176;2022-11-15T00:24:38;98044.94;;;11.16;81.92
13767;BME280;47980;48.794;9.176;2022-11-15T00:27:09;98051.69;;;11.13;81.54
13767;BME280;47980;48.794;9.176;2022-11-15T00:29:41;98043.59;;;11.09;82.84
13767;BME280;47980;48.794;9.176;2022-11-15T00:32:13;98038.19;;;11.06;83.76
13767;BME280;47980;48.794;9.176;2022-11-15T00:34:45;98039.59;;;11.03;83.44
13767;BME280;47980;48.794;9.176;2022-11-15T00:37:16;98037.28;;;11.02;84.13
13767;BME280;47980;48.794;9.176;2022-11-15T00:39:49;98030.84;;;11.03;83.95
13767;BME280;47980;48.794;9.176;2022-11-15T00:42:27;98031.19;;;11.01;84.20
13767;BME280;47980;48.794;9.176;2022-11-15T00:44:58;98026.19;;;11.00;82.97
13767;BME280;47980;48.794;9.176;2022-11-15T00:47:30;98022.78;;;10.99;82.25
13767;BME280;47980;48.794;9.176;2022-11-15T00:50:02;98020.91;;;11.00;83.04
13767;BME280;47980;48.794;9.176;2022-11-15T00:52:34;98016.16;;;11.05;81.19
13767;BME280;47980;48.794;9.176;2022-11-15T00:55:08;98013.28;;;11.11;81.86
13767;BME280;47980;48.794;9.176;2022-11-15T00:57:40;98005.09;;;11.03;82.14
13767;BME280;47980;48.794;9.176;2022-11-15T01:00:12;98011.28;;;10.95;82.43
13767;BME280;47980;48.794;9.176;2022-11-15T01:02:44;98002.53;;;10.95;83.06
13767;BME280;47980;48.794;9.176;2022-11-15T01:05:16;98011.97;;;11.04;82.62
13767;BME280;47980;48.794;9.176;2022-11-15T01:07:51;98009.84;;;10.98;81.38
13767;BME280;47980;48.794;9.176;2022-11-15T01:10:24;98008.31;;;10.97;82.92
13767;BME280;47980;48.794;9.176;2022-11-15T01:12:57;98002.75;;;10.90;85.39
13767;BME280;47980;48.794;9.176;2022-11-15T01:15:28;97998.00;;;10.83;85.64
13767;BME280;47980;48.794;9.176;2022-11-15T01:18:00;97993.97;;;10.65;86.79
13767;BME280;47980;48.794;9.176;2022-11-15T01:20:31;98007.03;;;10.49;90.06
13767;BME280;47980;48.794;9.176;2022-11-15T01:23:03;97999.38;;;10.35;92.23
13767;BME280;47980;48.794;9.176;2022-11-15T01:25:36;97995.47;;;10.11;94.90
13767;BME280;47980;48.794;9.176;2022-11-15T01:28:07;97988.38;;;10.03;95.36
13767;BME280;47980;48.794;9.176;2022-11-15T01:30:39;97988.97;;;9.79;97.32
13767;BME280;47980;48.794;9.176;2022-11-15T01:33:11;97990.31;;;9.64;98.18
13767;BME280;47980;48.794;9.176;2022-11-15T01:35:42;97997.50;;;9.64;98.02
13767;BME280;47980;48.794;9.176;2022-11-15T01:38:14;97992.13;;;9.52;98.73
13767;BME280;47980;48.794;9.176;2022-11-15T01:40:47;97987.75;;;9.47;99.74
13767;BME280;47980;48.794;9.176;2022-11-15T01:43:21;97990.28;;;9.44;99.54
13767;BME280;47980;48.794;9.176;2022-11-15T01:45:56;97989.38;;;9.39;98.81
13767;BME280;47980;48.794;9.176;2022-11-15T01:48:32;97987.06;;;9.29;98.59
13767;BME280;47980;48.794;9.176;2022-11-15T01:51:07;97994.72;;;9.22;100.00
13767;BME280;47980;48.794;9.176;2022-11-15T01:53:42;97990.72;;;9.16;100.00
13767;BME280;47980;48.794;9.176;2022-11-15T01:56:21;97990.09;;;9.10;100.00
13767;BME280;47980;48.794;9.176;2022-11-15T01:58:56;97987.66;;;9.05;100.00
13767;BME280;47980;48.794;9.176;2022-11-15T02:01:28;97983.28;;;9.09;100.00
13767;BME280;47980;48.794;9.176;2022-11-15T02:04:05;97984.31;;;9.17;100.00
13767;BME280;47980;48.794;9.176;2022-11-15T02:06:41;97978.69;;;9.27;100.00
13767;BME280;47980;48.794;9.176;2022-11-15T02:09:14;97971.94;;;9.38;100.00
13767;BME280;47980;48.794;9.176;2022-11-15T02:11:48;97969.84;;;9.53;99.07
13767;BME280;47980;48.794;9.176;2022-11-15T02:14:22;97968.38;;;9.64;97.23
13767;BME280;47980;48.794;9.176;2022-11-15T02:16:59;97959.59;;;9.72;97.73
13767;BME280;47980;48.794;9.176;2022-11-15T02:19:49;97957.66;;;9.81;96.84
13767;BME280;47980;48.794;9.176;2022-11-15T02:22:35;97951.38;;;9.86;95.79
13767;BME280;47980;48.794;9.176;2022-11-15T02:25:23;97956.19;;;9.93;
13767;BME280;47980;48.794;9.176;2022-11-15T02:28:26;97949.38;;;10.04;92.84
13767;BME280;47980;48.794;9.176;2022-11-15T02:31:07;97949.06;;;10.05;92.82
13767;BME280;47980;48.794;9.176;2022-11-15T02:33:46;97953.84;;;10.12;93.39
13767;BME280;47980;48.794;9.176;2022-11-15T02:36:28;97942.16;;;10.13;93.16
13767;BME280;47980;48.794;9.176;2022-11-15T02:39:06;97944.34;;;10.11;93.49
13767;BME280;47980;48.794;9.176;2022-11-15T02:41:44;97937.69;;;10.05;92.90
13767;BME280;47980;48.794;9.176;2022-11-15T02:44:23;97942.03;;;9.88;95.22
13767;BME280;47980;48.794;9.176;2022-11-15T02:46:58;97936.59;;;9.85;95.95
13767;BME280;47980;48.794;9.176;2022-11-15T02:49:52;97931.22;;;9.73;96.36
13767;BME280;47980;48.794;9.176;2022-11-15T02:52:24;97926.13;;;9.68;98.21
13767;BME280;47980;48.794;9.176;2022-11-15T02:54:59;97927.59;;;9.56;99.52
13767;BME280;47980;48.794;9.176;2022-11-15T02:57:39;97924.19;;;9.56;99.87
13767;BME280;47980;48.794;9.176;2022-11-15T03:00:15;97922.47;;;9.51;100.00
13767;BME280;47980;48.794;9.176;2022-11-15T03:06:06;97912.09;;;9.67;97.03
13767;BME280;47980;48.794;9.176;2022-11-15T03:08:50;97917.41;;;9.88;94.02
13767;BME280;47980;48.794;9.176;2022-11-15T03:11:27;97917.53;;;9.71;94.51
13767;BME280;47980;48.794;9.176;2022-11-15T03:14:07;97914.75;;;9.67;94.78
13767;BME280;47980;48.794;9.176;2022-11-15T03:16:48;97918.88;;;9.56;96.19
13767;BME280;47980;48.794;9.176;2022-11-15T03:19:28;97913.06;;;9.42;96.89
13767;BME280;47980;48.794;9.176;2022-11-15T03:22:04;97909.69;;;9.32;96.54
13767;BME280;47980;48.794;9.176;2022-11-15T03:24:38;97909.09;;;9.27;98.00
13767;BME280;47980;48.794;9.176;2022-11-15T03:27:14;97904.03;;;9.13;99.54
13767;BME280;47980;48.794;9.176;2022-11-15T03:29:52;97900.41;;;9.18;99.56
13767;BME280;47980;48.794;9.176;2022-11-15T03:32:28;97904.59;;;9.19;98.87
13767;BME280;47980;48.794;9.176;2022-11-15T03:35:06;97902.66;;;9.07;97.84
13767;BME280;47980;48.794;9.176;2022-11-15T03:37:42;97904.56;;;8.98;97.96
13767;BME280;47980;48.794;9.176;2022-11-15T03:40:16;97898.50;;;8.97;100.00
13767;BME280;47980;48.794;9.176;2022-11-15T03:42:58;97886.19;;;9.01;99.63
13767;BME280;47980;48.794;9.176;2022-11-15T03:45:36;97875.34;;;8.94;98.91
13767;BME280;47980;48.794;9.176;2022-11-15T03:48:13;97876.25;;;8.98;99.95
13767;BME280;47980;48.794;9.176;2022-11-15T03:50:47;97882.78;;;9.01;100.00
13767;BME280;47980;48.794;9.176;2022-11-15T03:53:20;97876.56;;;8.97;100.00
13767;BME280;47980;48.794;9.176;2022-11-15T03:55:51;97883.72;;;8.96;100.00
13767;BME280;47980;48.794;9.176;2022-11-15T03:58:23;97880.41;;;9.08;100.00
13767;BME280;47980;48.794;9.176;2022-11-15T04:00:55;97875.25;;;9.11;100.00
13767;BME280;47980;48.794;9.176;2022-11-15T04:03:26;97869.50;;;9.09;100.00
13767;BME280;47980;48.794;9.176;2022-11-15T04:05:59;97869.75;;;9.16;100.00
13767;BME280;47980;48.794;9.176;2022-11-15T04:08:31;97867.81;;;9.26;100.00
13767;BME280;47980;48.794;9.176;2022-11-15T04:11:03;97876.50;;;9.35;100.00
13767;BME280;47980;48.794;9.176;2022-11-15T04:13:34;97880.66;;;9.45;100.00
13767;BME280;47980;48.794;9.176;2022-11-15T04:16:06;97876.44;;;9.44;100.00
13767;BME280;47980;48.794;9.176;2022-11-15T04:18:37;97873.78;;;9.44;100.00
13767;BME280;47980;48.794;9.176;2022-11-15T04:21:10;97874.31;;;9.37;100.00
13767;BME280;47980;48.794;9.176;2022-11-15T04:23:59;97871.97;;;9.35;100.00
13767;BME280;47980;48.794;9.176;2022-11-15T04:26:54;97868.56;;;9.35;100.00
13767;BME280;47980;48.794;9.176;2022-11-15T04:29:26;97870.56;;;9.38;100.00
13767;BME280;47980;48.794;9.176;2022-11-15T04:32:06;97876.38;;;9.31;100.00
13767;BME280;47980;48.794;9.176;2022-11-15T04:34:38;97869.84;;;9.29;100.00
13767;BME280;47980;48.794;9.176;2022-11-15T04:37:11;97870.88;;;9.36;100.00
13767;BME280;47980;48.794;9.176;2022-11-15T04:39:42;97864.16;;;9.39;99.56
13767;BME280;47980;48.794;9.176;2022-11-15T04:42:14;97859.00;;;9.43;99.17
13767;BME280;47980;48.794;9.176;2022-11-15T04:44:46;97867.31;;;9.32;100.00
13767;BME280;47980;48.794;9.176;2022-11-15T04:47:17;97849.97;;;9.23;100.00
13767;BME280;47980;48.794;9.176;2022-11-15T04:49:49;97851.03;;;9.22;100.00
13767;BME280;47980;48.794;9.176;2022-11-15T04:52:22;97848.00;;;9.11;100.00
13767;BME280;47980;48.794;9.176;2022-11-15T04:54:54;97855.22;;;9.02;100.00
13767;BME280;47980;48.794;9.176;2022-11-15T04:57:25;97850.75;;;8.94;100.00
13767;BME280;47980;48.794;9.176;2022-11-15T04:59:57;97858.28;;;8.83;100.00
13767;BME280;47980;48.794;9.176;2022-11-15T05:02:28;97848.34;;;8.80;100.00
13767;BME280;47980;48.794;9.176;2022-11-15T05:05:20;97840.75;;;8.70;100.00
13767;BME280;47980;48.794;9.176;2022-11-15T05:07:52;97842.00;;;8.63;100.00
13767;BME280;47980;48.794;9.176;2022-11-15T05:10:24;97840.94;;;8.64;100.00
13767;BME280;47980;48.794;9.176;2022-11-15T05:12:56;97835.25;;;8.83;100.00
13767;BME280;47980;48.794;9.176;2022-11-15T05:15:27;97834.41;;;8.91;100.00
13767;BME280;47980;48.794;9.176;2022-11-15T05:17:59;97827.44;;;8.87;100.00
13767;BME280;47980;48.794;9.176;2022-11-15T05:20:31;97827.44;;;8.87;100.00
13767;BME280;47980;48.794;9.176;2022-11-15T05:23:04;97818.75;;;8.86;100.00
13767;BME280;47980;48.794;9.176;2022-11-15T05:25:36;97828.22;;;8.87;100.00
13767;BME280;47980;48.794;9.176;2022-11-15T05:28:08;97833.56;;;8.79;100.00
13767;BME280;47980;48.794;9.176;2022-11-15T05:30:39;97831.38;;;8.81;100.00
13767;BME280;47980;48.794;9.176;2022-11-15T05:33:11;97822.53;;;8.77;100.00
13767;BME280;47980;48.794;9.176;2022-11-15T05:35:46;97817.72;;;8.70;100.00
13767;BME280;47980;48.794;9.176;2022-11-15T05:38:24;97823.94;;;8.74;100.00
13767;BME280;47980;48.794;9.176;2022-11-15T05:40:56;97820.16;;;8.84;100.00
13767;BME280;47980;48.794;9.176;2022-11-15T05:43:29;97822.94;;;8.87;100.00
13767;BME280;47980;48.794;9.176;2022-11-15T05:46:03;97808.56;;;8.97;100.00
13767;BME280;47980;48.794;9.176;2022-11-15T05:48:36;97806.97;;;9.05;100.00
13767;BME280;47980;48.794;9.176;2022-11-15T05:51:08;97811.75;;;9.11;100.00
13767;BME280;47980;48.794;9.176;2022-11-15T05:53:42;97810.31;;;9.14;100.00
13767;BME280;47980;48.794;9.176;2022-11-15T05:56:14;97811.97;;;9.19;100.00
13767;BME280;47980;48.794;9.176;2022-11-15T05:58:46;97816.63;;;9.22;100.00
13767;BME280;47980;48.794;9.176;2022-11-15T06:01:18;97817.88;;;9.45;98.31
13767;BME280;47980;48.794;9.176;2022-11-15T06:03:49;97822.53;;;9.27;98.98
13767;BME280;47980;48.794;9.176;2022-11-15T06:06:21;97818.13;;;9.10;100.00
13767;BME280;47980;48.794;9.176;2022-11-15T06:08:54;97820.38;;;9.00;100.00
13767;BME280;47980;48.794;9.176;2022-11-15T06:11:26;97817.91;;;8.95;100.00
13767;BME280;47980;48.794;9.176;2022-11-15T06:13:57;97815.13;;;8.91;100.00
13767;BME280;47980;48.794;9.176;2022-11-15T06:16:29;97819.44;;;8.96;100.00
13767;BME280;47980;48.794;9.176;2022-11-15T06:19:01;97830.00;;;9.04;100.00
13767;BME280;47980;48.794;9.176;2022-11-15T06:21:33;97830.31;;;9.03;100.00
13767;BME280;47980;48.794;9.176;2022-11-15T06:24:07;97820.06;;;9.01;100.00
13767;BME280;47980;48.794;9.176;2022-11-15T06:26:39;97826.69;;;9.07;100.00
13767;BME280;47980;48.794;9.176;2022-11-15T06:29:10;97818.75;;;9.07;100.00
13767;BME280;47980;48.794;9.176;2022-11-15T06:31:42;97820.75;;;9.10;100.00
13767;BME280;47980;48.794;9.176;2022-11-15T06:34:23;97825.28;;;9.10;100.00
13767;BME280;47980;48.794;9.176;2022-11-15T06:36:54;97820.75;;;9.10;100.00
13767;BME280;47980;48.794;9.176;2022-11-15T06:39:32;97821.53;;;9.11;100.00
13767;BME280;47980;48.794;9.176;2022-11-15T06:42:03;97819.94;;;9.19;100.00
13767;BME280;47980;48.794;9.176;2022-11-15T06:44:35;97820.72;;;9.19;100.00
13767;BME280;47980;48.794;9.176;2022-11-15T06:47:06;97828.47;;;9.24;100.00
13767;BME280;47980;48.794;9.176;2022-11-15T06:49:38;97823.34;;;9.40;100.00
13767;BME280;47980;48.794;9.176;2022-11-15T06:52:10;97823.44;;;9.52;100.00
13767;BME280;47980;48.794;9.176;2022-11-15T06:54:44;97835.44;;;9.50;100.00
13767;BME280;47980;48.794;9.176;2022-11-15T06:57:16;97841.19;;;9.52;100.00
13767;BME280;47980;48.794;9.176;2022-11-15T06:59:47;97838.25;;;9.65;100.00
13767;BME280;47980;48.794;9.176;2022-11-15T07:02:19;97843.16;;;9.76;100.00
13767;BME280;47980;48.794;9.176;2022-11-15T07:04:50;97833.59;;;9.83;100.00
13767;BME280;47980;48.794;9.176;2022-11-15T07:07:22;97837.19;;;10.00;98.30
13767;BME280;47980;48.794;9.176;2022-11-15T07:09:55;97827.38;;;10.00;97.69
13767;BME280;47980;48.794;9.176;2022-11-15T07:12:26;97845.94;;;10.12;98.55
13767;BME280;47980;48.794;9.176;2022-11-15T07:14:58;97838.19;;;10.28;96.95
13767;BME280;47980;48.794;9.176;2022-11-15T07:17:30;97835.66;;;10.44;97.35
13767;BME280;47980;48.794;9.176;2022-11-15T07:20:02;97841.72;;;10.32;94.77
13767;BME280;47980;48.794;9.176;2022-11-15T07:22:33;97838.66;;;10.43;94.97
13767;BME280;47980;48.794;9.176;2022-11-15T07:25:07;97839.53;;;10.59;95.43
13767;BME280;47980;48.794;9.176;2022-11-15T07:27:39;97839.44;;;10.68;92.24
13767;BME280;47980;48.794;9.176;2022-11-15T07:30:12;97841.41;;;10.95;88.18
13767;BME280;47980;48.794;9.176;2022-11-15T07:32:44;97834.88;;;11.17;85.89
13767;BME280;47980;48.794;9.176;2022-11-15T07:35:16;97834.38;;;11.40;82.94
13767;BME280;47980;48.794;9.176;2022-11-15T07:37:55;97841.31;;;11.56;80.61
13767;BME280;47980;48.794;9.176;2022-11-15T07:40:30;97831.66;;;12.20;79.72
13767;BME280;47980;48.794;9.176;2022-11-15T07:43:03;97834.50;;;12.43;77.46
13767;BME280;47980;48.794;9.176;2022-11-15T07:45:40;97840.78;;;12.35;77.41
13767;BME280;47980;48.794;9.176;2022-11-15T07:48:12;97831.66;;;12.52;76.69
13767;BME280;47980;48.794;9.176;2022-11-15T07:50:43;97830.53;;;12.37;77.84
13767;BME280;47980;48.794;9.176;2022-11-15T07:53:15;97826.00;;;12.53;78.21
13767;BME280;47980;48.794;9.176;2022-11-15T07:55:48;97828.31;;;12.55;77.36
13767;BME280;47980;48.794;9.176;2022-11-15T07:58:19;97828.25;;;12.67;77.94
13767;BME280;47980;48.794;9.176;2022-11-15T08:00:51;97818.19;;;12.61;78.13
13767;BME280;47980;48.794;9.176;2022-11-15T08:03:23;97818.09;;;12.41;78.02
13767;BME280;47980;48.794;9.176;2022-11-15T08:05:54;97821.47;;;12.54;78.72
13767;BME280;47980;48.794;9.176;2022-11-15T08:08:26;97817.44;;;12.60;77.12
13767;BME280;47980;48.794;9.176;2022-11-15T08:10:59;97811.41;;;12.63;77.25
13767;BME280;47980;48.794;9.176;2022-11-15T08:13:31;97818.28;;;12.64;79.25
13767;BME280;47980;48.794;9.176;2022-11-15T08:16:03;97805.78;;;12.84;79.50
13767;BME280;47980;48.794;9.176;2022-11-15T08:18:35;97802.28;;;12.80;79.16
13767;BME280;47980;48.794;9.176;2022-11-15T08:21:09;97807.94;;;12.94;78.11
13767;BME280;47980;48.794;9.176;2022-11-15T08:23:40;97801.34;;;12.72;78.24
13767;BME280;47980;48.794;9.176;2022-11-15T08:26:13;97800.94;;;13.06;77.42
13767;BME280;47980;48.794;9.176;2022-11-15T08:28:45;97792.66;;;13.11;77.99
13767;BME280;47980;48.794;9.176;2022-11-15T08:31:17;97800.41;;;12.81;79.89
13767;BME280;47980;48.794;9.176;2022-11-15T08:33:50;97788.69;;;12.85;78.70
13767;BME280;47980;48.794;9.176;2022-11-15T08:36:22;97784.50;;;12.84;77.95
13767;BME280;47980;48.794;9.176;2022-11-15T08:38:54;97786.56;;;12.91;78.55
13767;BME280;47980;48.794;9.176;2022-11-15T08:41:29;97779.69;;;12.90;79.31
13767;BME280;47980;48.794;9.176;2022-11-15T08:44:02;97784.50;;;12.84;77.73
13767;BME280;47980;48.794;9.176;2022-11-15T08:46:33;97778.69;;;12.63;78.97
13767;BME280;47980;48.794;9.176;2022-11-15T08:49:05;97779.53;;;12.67;79.34
13767;BME280;47980;48.794;9.176;2022-11-15T08:51:36;97765.94;;;12.88;78.52
13767;BME280;47980;48.794;9.176;2022-11-15T08:54:08;97769.97;;;12.97;78.50
13767;BME280;47980;48.794;9.176;2022-11-15T08:56:41;97767.56;;;12.92;78.03
13767;BME280;47980;48.794;9.176;2022-11-15T08:59:12;97759.75;;;13.19;76.09
13767;BME280;47980;48.794;9.176;2022-11-15T09:01:44;97768.06;;;13.53;74.47
13767;BME280;47980;48.794;9.176;2022-11-15T09:04:16;97765.09;;;13.77;73.27
13767;BME280;47980;48.794;9.176;2022-11-15T09:06:48;97763.78;;;13.90;72.73
13767;BME280;47980;48.794;9.176;2022-11-15T09:09:20;97762.19;;;14.09;72.54
13767;BME280;47980;48.794;9.176;2022-11-15T09:11:53;97767.19;;;14.10;70.32
13767;BME280;47980;48.794;9.176;2022-11-15T09:14:24;97764.97;;;13.93;70.89
13767;BME280;47980;48.794;9.176;2022-11-15T09:16:56;97763.81;;;14.13;70.93
13767;BME280;47980;48.794;9.176;2022-11-15T09:19:28;97765.38;;;14.41;68.85
13767;BME280;47980;48.794;9.176;2022-11-15T09:22:00;97762.44;;;14.00;69.83
13767;BME280;47980;48.794;9.176;2022-11-15T09:24:31;97757.22;;;13.65;70.47
13767;BME280;47980;48.794;9.176;2022-11-15T09:27:04;97751.66;;;13.93;70.63
13767;BME280;47980;48.794;9.176;2022-11-15T09:29:36;97759.31;;;13.75;72.69
13767;BME280;47980;48.794;9.176;2022-11-15T09:32:07;97763.31;;;14.08;70.09
13767;BME280;47980;48.794;9.176;2022-11-15T09:34:39;97759.53;;;14.09;71.41
13767;BME280;47980;48.794;9.176;2022-11-15T09:37:10;97758.16;;;14.18;70.08
13767;BME280;47980;48.794;9.176;2022-11-15T09:39:42;97764.44;;;14.30;70.05
13767;BME280;47980;48.794;9.176;2022-11-15T09:42:37;97756.44;;;14.30;69.42
13767;BME280;47980;48.794;9.176;2022-11-15T09:45:18;97752.16;;;14.48;69.45
13767;BME280;47980;48.794;9.176;2022-11-15T09:48:20;97748.13;;;14.84;68.26
13767;BME280;47980;48.794;9.176;2022-11-15T09:50:54;97743.63;;;14.92;67.71
13767;BME280;47980;48.794;9.176;2022-11-15T09:53:34;97739.47;;;14.95;66.38
13767;BME280;47980;48.794;9.176;2022-11-15T09:56:14;97740.09;;;15.45;65.60
13767;BME280;47980;48.794;9.176;2022-11-15T09:58:57;97734.16;;;15.62;64.24
13767;BME280;47980;48.794;9.176;2022-11-15T10:01:39;97737.63;;;16.03;62.42
13767;BME280;47980;48.794;9.176;2022-11-15T10:04:14;97736.41;;;15.94;62.69
13767;BME280;47980;48.794;9.176;2022-11-15T10:06:52;97728.06;;;15.99;63.14
13767;BME280;47980;48.794;9.176;2022-11-15T10:09:28;97730.94;;;15.83;62.58
13767;BME280;47980;48.794;9.176;2022-11-15T10:12:17;97728.53;;;15.71;63.23
13767;BME280;47980;48.794;9.176;2022-11-15T10:14:55;97721.81;;;15.50;63.23
13767;BME280;47980;48.794;9.176;2022-11-15T10:17:48;97727.56;;;15.52;63.67
13767;BME280;47980;48.794;9.176;2022-11-15T10:20:27;97722.22;;;15.19;63.92
13767;BME280;47980;48.794;9.176;2022-11-15T10:23:00;97727.94;;;15.17;66.79
13767;BME280;47980;48.794;9.176;2022-11-15T10:25:33;97717.88;;;15.74;63.88
13767;BME280;47980;48.794;9.176;2022-11-15T10:28:11;97714.94;;;15.86;63.90
13767;BME280;47980;48.794;9.176;2022-11-15T10:30:48;97704.00;;;15.61;63.83
13767;BME280;47980;48.794;9.176;2022-11-15T10:33:25;97700.69;;;15.04;64.46
13767;BME280;47980;48.794;9.176;2022-11-15T10:36:18;97700.03;;;15.48;63.18
13767;BME280;47980;48.794;9.176;2022-11-15T10:38:53;97697.03;;;15.20;65.50
13767;BME280;47980;48.794;9.176;2022-11-15T10:41:35;97693.56;;;15.15;66.79
13767;BME280;47980;48.794;9.176;2022-11-15T10:44:16;97691.28;;;14.84;67.27
13767;BME280;47980;48.794;9.176;2022-11-15T10:47:05;97691.09;;;15.33;65.65
13767;BME280;47980;48.794;9.176;2022-11-15T10:49:53;97685.59;;;15.56;65.04
13767;BME280;47980;48.794;9.176;2022-11-15T10:52:25;97682.81;;;15.46;64.25
13767;BME280;47980;48.794;9.176;2022-11-15T10:55:01;97676.56;;;15.31;64.50
13767;BME280;47980;48.794;9.176;2022-11-15T10:57:36;97672.22;;;15.19;65.37
13767;BME280;47980;48.794;9.176;2022-11-15T11:00:27;97670.88;;;15.02;64.90
13767;BME280;47980;48.794;9.176;2022-11-15T11:03:02;97659.91;;;14.77;67.61
13767;BME280;47980;48.794;9.176;2022-11-15T11:05:35;97669.16;;;14.53;67.44
13767;BME280;47980;48.794;9.176;2022-11-15T11:08:21;97665.22;;;14.47;68.83
13767;BME280;47980;48.794;9.176;2022-11-15T11:10:54;97668.44;;;14.56;68.47
13767;BME280;47980;48.794;9.176;2022-11-15T11:13:28;97668.91;;;14.39;68.25
13767;BME280;47980;48.794;9.176;2022-11-15T11:16:20;97666.72;;;14.71;67.88
13767;BME280;47980;48.794;9.176;2022-11-15T11:19:02;97662.56;;;14.77;67.54
13767;BME280;47980;48.794;9.176;2022-11-15T11:21:43;97666.50;;;14.87;67.80
13767;BME280;47980;48.794;9.176;2022-11-15T11:24:23;97661.69;;;14.96;67.12
13767;BME280;47980;48.794;9.176;2022-11-15T11:27:13;97653.75;;;15.03;66.01
13767;BME280;47980;48.794;9.176;2022-11-15T11:30:00;97656.19;;;15.19;66.46
13767;BME280;47980;48.794;9.176;2022-11-15T11:32:50;97649.53;;;15.39;64.96
13767;BME280;47980;48.794;9.176;2022-11-15T11:35:31;97649.50;;;15.36;64.32
13767;BME280;47980;48.794;9.176;2022-11-15T11:38:17;97645.94;;;15.25;66.85
13767;BME280;47980;48.794;9.176;2022-11-15T11:41:00;97638.38;;;15.30;66.73
13767;BME280;47980;48.794;9.176;2022-11-15T11:43:41;97633.69;;;15.61;65.96
13767;BME280;47980;48.794;9.176;2022-11-15T11:49:16;97618.97;;;15.37;66.35
13767;BME280;47980;48.794;9.176;2022-11-15T11:51:55;97616.25;;;15.74;65.11
13767;BME280;47980;48.794;9.176;2022-11-15T11:54:37;97615.84;;;15.69;66.56
13767;BME280;47980;48.794;9.176;2022-11-15T11:57:16;97613.72;;;15.48;65.58
13767;BME280;47980;48.794;9.176;2022-11-15T11:59:53;97603.34;;;15.83;64.83
13767;BME280;47980;48.794;9.176;2022-11-15T12:02:34;97610.72;;;15.56;65.52
13767;BME280;47980;48.794;9.176;2022-11-15T12:05:11;97605.34;;;15.97;65.43
13767;BME280;47980;48.794;9.176;2022-11-15T12:07:48;97607.09;;;15.75;65.86
13767;BME280;47980;48.794;9.176;2022-11-15T12:10:24;97610.56;;;15.83;64.54
13767;BME280;47980;48.794;9.176;2022-11-15T12:13:06;97606.00;;;15.80;65.39
13767;BME280;47980;48.794;9.176;2022-11-15T12:16:00;97591.84;;;15.38;66.97
13767;BME280;47980;48.794;9.176;2022-11-15T12:18:34;97583.63;;;15.58;66.99
13767;BME280;47980;48.794;9.176;2022-11-15T12:21:13;97586.44;;;15.76;66.25
13767;BME280;47980;48.794;9.176;2022-11-15T12:23:52;97580.03;;;15.84;65.63
13767;BME280;47980;48.794;9.176;2022-11-15T12:26:28;97575.13;;;15.97;66.13
13767;BME280;47980;48.794;9.176;2022-11-15T12:29:05;97582.59;;;16.32;65.04
13767;BME280;47980;48.794;9.176;2022-11-15T12:31:43;97578.88;;;15.81;65.99
13767;BME280;47980;48.794;9.176;2022-11-15T12:34:34;97581.22;;;15.94;65.15
13767;BME280;47980;48.794;9.176;2022-11-15T12:40:33;97572.50;;;15.52;67.55
13767;BME280;47980;48.794;9.176;2022-11-15T12:46:13;97568.88;;;15.75;68.41
13767;BME280;47980;48.794;9.176;2022-11-15T12:48:55;97571.31;;;15.50;68.81
13767;BME280;47980;48.794;9.176;2022-11-15T12:54:59;97563.69;;;15.48;69.11
13767;BME280;47980;48.794;9.176;2022-11-15T12:57:35;97556.53;;;15.63;67.50
13767;BME280;47980;48.794;9.176;2022-11-15T13:03:24;97544.22;;;15.48;68.81
13767;BME280;47980;48.794;9.176;2022-11-15T13:06:08;97550.41;;;15.59;68.65
13767;BME280;47980;48.794;9.176;2022-11-15T13:08:46;97540.25;;;15.79;68.50
13767;BME280;47980;48.794;9.176;2022-11-15T13:11:48;97544.03;;;15.71;68.87
13767;BME280;47980;48.794;9.176;2022-11-15T13:17:56;97529.22;;;15.32;73.34
13767;BME280;47980;48.794;9.176;2022-11-15T13:20:29;97531.84;;;15.29;72.56
13767;BME280;47980;48.794;9.176;2022-11-15T13:23:08;97530.00;;;15.36;72.27
13767;BME280;47980;48.794;9.176;2022-11-15T13:26:12;97518.25;;;15.48;73.73
13767;BME280;47980;48.794;9.176;2022-11-15T13:28:45;97518.19;;;15.41;74.20
13767;BME280;47980;48.794;9.176;2022-11-15T13:31:24;97514.75;;;15.40;73.19
13767;BME280;47980;48.794;9.176;2022-11-15T13:34:01;97510.56;;;15.43;74.16
13767;BME280;47980;48.794;9.176;2022-11-15T13:36:33;97515.91;;;15.43;74.55
13767;BME280;47980;48.794;9.176;2022-11-15T13:39:13;97513.56;;;15.34;76.39
13767;BME280;47980;48.794;9.176;2022-11-15T13:41:47;97501.66;;;15.28;76.83
13767;BME280;47980;48.794;9.176;2022-11-15T13:44:20;97503.59;;;14.87;77.08
13767;BME280;47980;48.794;9.176;2022-11-15T13:47:01;97501.03;;;14.98;77.50
13767;BME280;47980;48.794;9.176;2022-11-15T13:49:35;97490.53;;;14.75;78.49
13767;BME280;47980;48.794;9.176;2022-11-15T13:52:10;97489.56;;;14.93;77.87
13767;BME280;47980;48.794;9.176;2022-11-15T13:54:47;97489.56;;;14.93;77.99
13767;BME280;47980;48.794;9.176;2022-11-15T13:57:23;97478.56;;;15.02;77.57
13767;BME280;47980;48.794;9.176;2022-11-15T13:59:57;97481.88;;;14.88;78.48
13767;BME280;47980;48.794;9.176;2022-11-15T14:02:32;97476.94;;;14.90;78.19
13767;BME280;47980;48.794;9.176;2022-11-15T14:05:14;97479.91;;;14.82;80.00
13767;BME280;47980;48.794;9.176;2022-11-15T14:07:53;97471.38;;;14.69;80.55
13767;BME280;47980;48.794;9.176;2022-11-15T14:10:28;97471.47;;;14.76;80.54